Terminal Aerodrome Forecast
Issued by NWS Albuquerque, NM

Home | Current Version | Previous Version | Text Only | Print | Product List | Glossary On
Versions: 1 2 3 4 5 6 7 8 9 10 11 12 13
000
FTUS45 KABQ 291740
TAFABQ
TAF
KABQ 291740Z 2918/3018 36012G16KT P6SM SCT040 SCT150
      TEMPO 2918/2920 34008KT
     FM292200 34010G16KT P6SM VCSH SCT070 SCT150
     FM300200 09009KT P6SM FEW070 FEW150
     FM300500 VRB05KT P6SM SKC
     FM301100 VRB05KT P6SM FEW004=

USA.gov is the U.S. government's official web portal to all federal, state and local government web resources and services.